Time;durP1;ratioP1;P1;durP2;ratioP2;P2;SDS_P1;SDS_P2;PMS_P1;PMS_P2;Temp;Humidity;BMP_temperature;BMP_pressure;BME280_temperature;BME280_humidity;BME280_pressure;Samples;Min_cycle;Max_cycle;Signal;HPM_P1;HPM_P2
2022/07/21 00:00:14;;;;;;;5.30;2.90;;;13.80;69.20;;;;;;5110414;27;20035;-68
2022/07/21 00:02:41;;;;;;;2.55;1.55;;;13.70;69.10;;;;;;5113030;27;20079;-67
2022/07/21 00:05:08;;;;;;;2.50;1.33;;;13.70;68.90;;;;;;5110766;28;20484;-68
2022/07/21 00:07:34;;;;;;;3.60;0.95;;;13.70;68.80;;;;;;5110934;27;20023;-68
2022/07/21 00:10:01;;;;;;;9.85;1.00;;;13.70;69.00;;;;;;5110496;27;20473;-68
2022/07/21 00:12:27;;;;;;;2.92;0.80;;;13.70;68.90;;;;;;5109905;27;20027;-67
2022/07/21 00:14:53;;;;;;;4.40;0.40;;;13.60;68.80;;;;;;5111608;27;20016;-68
2022/07/21 00:17:20;;;;;;;2.20;0.40;;;13.60;68.80;;;;;;5112524;27;20054;-69
2022/07/21 00:19:47;;;;;;;5.00;0.63;;;13.60;68.80;;;;;;5110128;28;20062;-68
2022/07/21 00:22:13;;;;;;;0.25;0.20;;;13.70;68.90;;;;;;5112085;27;20016;-68
2022/07/21 00:24:40;;;;;;;3.20;0.70;;;13.60;68.70;;;;;;5091735;28;20165;-68
2022/07/21 00:27:06;;;;;;;0.90;0.40;;;13.60;68.70;;;;;;5110816;27;20039;-68
2022/07/21 00:29:33;;;;;;;1.25;0.47;;;13.60;68.60;;;;;;5111786;27;20051;-71
2022/07/21 00:32:00;;;;;;;0.75;0.50;;;13.50;68.60;;;;;;5112144;27;20478;-68
2022/07/21 00:34:27;;;;;;;0.50;0.50;;;13.50;68.80;;;;;;5112465;27;20028;-68
2022/07/21 00:36:53;;;;;;;1.08;0.47;;;13.50;68.90;;;;;;5111016;28;20019;-69
2022/07/21 00:39:20;;;;;;;1.55;0.47;;;13.50;69.10;;;;;;5110503;27;20498;-69
2022/07/21 00:41:46;;;;;;;8.30;2.05;;;13.50;69.10;;;;;;5110474;27;20023;-69
2022/07/21 00:44:26;;;;;;;0.88;0.60;;;13.50;69.60;;;;;;5111728;27;20142;-68
2022/07/21 00:46:53;;;;;;;1.35;0.40;;;13.40;69.20;;;;;;5108725;27;20027;-68
2022/07/21 00:49:20;;;;;;;3.80;0.70;;;13.40;69.10;;;;;;5110729;27;20078;-69
2022/07/21 00:51:48;;;;;;;9.43;0.80;;;13.40;69.90;;;;;;5109932;27;20034;-68
2022/07/21 00:54:16;;;;;;;11.95;0.60;;;13.40;70.20;;;;;;5111302;27;20023;-69
2022/07/21 00:56:43;;;;;;;3.22;0.52;;;13.40;70.00;;;;;;5111538;27;20096;-72
2022/07/21 00:59:10;;;;;;;9.15;1.48;;;13.40;70.60;;;;;;5109564;27;20125;-68
2022/07/21 01:01:37;;;;;;;7.57;0.40;;;13.40;70.90;;;;;;5112756;27;20019;-69
2022/07/21 01:04:04;;;;;;;1.67;0.30;;;13.40;70.30;;;;;;5108690;27;20104;-69
2022/07/21 01:06:30;;;;;;;0.98;0.20;;;13.40;70.00;;;;;;5109014;28;20027;-69
2022/07/21 01:08:57;;;;;;;1.45;0.40;;;13.30;69.70;;;;;;5112629;27;20028;-68
2022/07/21 01:11:25;;;;;;;0.68;0.28;;;13.30;69.60;;;;;;5109584;27;20007;-69
2022/07/21 01:13:52;;;;;;;1.23;0.25;;;13.30;69.60;;;;;;5108292;27;20098;-70
2022/07/21 01:16:18;;;;;;;0.20;0.10;;;13.30;69.60;;;;;;5110934;27;20043;-68
2022/07/21 01:18:45;;;;;;;0.73;0.20;;;13.30;69.40;;;;;;5110502;27;20016;-68
2022/07/21 01:21:37;;;;;;;2.38;0.30;;;13.30;70.10;;;;;;5112697;27;20023;-69
2022/07/21 01:24:05;;;;;;;1.70;0.10;;;13.30;69.80;;;;;;5107938;27;20515;-71
2022/07/21 01:26:40;;;;;;;1.15;0.40;;;13.30;69.80;;;;;;5109532;27;20379;-70
2022/07/21 01:29:08;;;;;;;0.73;0.68;;;13.20;69.70;;;;;;5108788;27;20031;-69
2022/07/21 01:31:35;;;;;;;0.22;0.15;;;13.20;69.70;;;;;;5110128;27;20474;-69
2022/07/21 01:34:02;;;;;;;2.30;0.10;;;13.30;69.80;;;;;;5108686;28;20020;-69
2022/07/21 01:36:28;;;;;;;0.28;0.10;;;13.20;69.90;;;;;;5110463;27;20012;-69
2022/07/21 01:41:40;;;;;;;1.45;0.10;;;13.20;69.70;;;;;;5109582;27;20030;-69
2022/07/21 01:44:09;;;;;;;0.95;0.50;;;13.10;69.70;;;;;;5108225;27;20019;-69
2022/07/21 01:46:40;;;;;;;4.40;0.57;;;13.20;69.70;;;;;;5111344;27;20470;-67
2022/07/21 01:49:07;;;;;;;2.30;0.70;;;13.20;69.70;;;;;;5111262;27;20024;-69
2022/07/21 01:51:34;;;;;;;6.97;0.75;;;13.10;69.60;;;;;;5108145;27;20026;-68
2022/07/21 01:54:00;;;;;;;0.55;0.25;;;13.10;69.50;;;;;;5111500;27;20039;-68
2022/07/21 01:56:27;;;;;;;1.27;0.25;;;13.10;69.40;;;;;;5109880;27;20027;-71
2022/07/21 01:58:57;;;;;;;3.92;0.30;;;13.10;69.40;;;;;;5110879;27;20034;-67
2022/07/21 02:01:28;;;;;;;0.93;0.38;;;13.10;69.50;;;;;;5106763;28;20015;-69
2022/07/21 02:03:56;;;;;;;0.10;0.10;;;13.10;70.10;;;;;;5109303;27;20064;-70
2022/07/21 02:06:24;;;;;;;0.50;0.30;;;13.10;70.00;;;;;;5107808;28;20351;-67
2022/07/21 02:08:51;;;;;;;6.38;0.30;;;13.00;69.70;;;;;;5107902;27;20184;-68
2022/07/21 02:11:18;;;;;;;5.85;0.45;;;13.00;69.70;;;;;;5108568;27;20016;-69
2022/07/21 02:13:45;;;;;;;0.00;0.00;;;13.00;69.80;;;;;;5110224;27;20034;-69
2022/07/21 02:16:12;;;;;;;0.75;0.20;;;13.00;69.70;;;;;;5111230;27;20410;-69
2022/07/21 02:18:39;;;;;;;1.63;0.80;;;13.00;69.70;;;;;;5106434;28;20027;-68
2022/07/21 02:21:06;;;;;;;1.75;0.85;;;13.00;69.60;;;;;;5109584;28;20023;-69
2022/07/21 02:23:33;;;;;;;0.73;0.20;;;13.00;69.70;;;;;;5108132;28;20019;-66
2022/07/21 02:26:01;;;;;;;3.67;1.17;;;13.00;69.70;;;;;;5092069;28;20471;-69
2022/07/21 02:28:27;;;;;;;1.08;0.50;;;12.90;69.60;;;;;;5107651;28;20031;-66
2022/07/21 02:30:54;;;;;;;3.00;0.65;;;12.90;69.60;;;;;;5110347;28;20060;-68
2022/07/21 02:33:21;;;;;;;1.08;0.60;;;13.00;69.70;;;;;;5109115;28;20368;-66
2022/07/21 02:35:48;;;;;;;1.23;0.80;;;12.90;69.90;;;;;;5104584;28;20030;-69
2022/07/21 02:38:15;;;;;;;6.30;0.77;;;12.90;69.60;;;;;;5106613;28;20502;-67
2022/07/21 02:40:41;;;;;;;13.38;0.80;;;12.90;69.40;;;;;;5107891;28;20462;-67
2022/07/21 02:43:08;;;;;;;1.65;0.32;;;12.80;69.90;;;;;;5108810;28;20030;-68
2022/07/21 02:45:36;;;;;;;1.50;0.70;;;12.80;69.70;;;;;;5112766;28;20019;-68
2022/07/21 02:48:07;;;;;;;7.22;0.50;;;12.80;69.30;;;;;;5106918;28;20478;-71
2022/07/21 02:50:36;;;;;;;1.48;0.30;;;12.80;69.20;;;;;;5109156;28;20016;-67
2022/07/21 02:53:07;;;;;;;4.90;0.68;;;12.80;69.30;;;;;;5112411;28;20099;-69
2022/07/21 02:55:34;;;;;;;1.92;0.30;;;12.80;69.60;;;;;;5110490;28;20097;-67
2022/07/21 02:58:15;;;;;;;5.68;0.50;;;12.70;69.30;;;;;;5107893;28;20375;-67
2022/07/21 03:00:45;;;;;;;4.30;0.50;;;12.70;69.50;;;;;;5109710;28;20016;-66
2022/07/21 03:03:12;;;;;;;6.63;0.75;;;12.70;69.40;;;;;;5111069;28;20012;-68
2022/07/21 03:05:39;;;;;;;3.40;0.52;;;12.70;69.40;;;;;;5105862;28;20020;-66
2022/07/21 03:08:07;;;;;;;4.53;0.30;;;12.70;69.30;;;;;;5109416;28;20023;-67
2022/07/21 03:10:33;;;;;;;1.13;0.30;;;12.60;69.10;;;;;;5106634;28;20023;-66
2022/07/21 03:13:00;;;;;;;2.33;0.15;;;12.60;69.00;;;;;;5108267;28;20408;-70
2022/07/21 03:15:27;;;;;;;0.55;0.38;;;12.60;69.20;;;;;;5107853;28;20023;-71
2022/07/21 03:17:54;;;;;;;0.60;0.30;;;12.60;69.40;;;;;;5106553;28;20080;-71
2022/07/21 03:20:25;;;;;;;0.32;0.30;;;12.50;69.30;;;;;;5110092;28;20467;-70
2022/07/21 03:22:51;;;;;;;10.18;0.30;;;12.60;69.50;;;;;;5106475;27;20019;-71
2022/07/21 03:25:19;;;;;;;1.08;0.40;;;12.50;69.60;;;;;;5113514;27;20020;-71
2022/07/21 03:27:46;;;;;;;2.58;0.40;;;12.50;69.60;;;;;;5093006;28;20119;-71
2022/07/21 03:30:13;;;;;;;0.93;0.30;;;12.50;69.50;;;;;;5109831;28;20012;-70
2022/07/21 03:32:41;;;;;;;1.77;0.35;;;12.50;69.40;;;;;;5114424;27;20032;-67
2022/07/21 03:35:10;;;;;;;6.38;0.93;;;12.50;69.30;;;;;;5111622;27;20360;-68
2022/07/21 03:38:01;;;;;;;2.10;0.52;;;12.50;69.70;;;;;;5111874;27;20072;-68
2022/07/21 03:40:31;;;;;;;1.38;0.52;;;12.50;69.50;;;;;;5110476;27;20036;-68
2022/07/21 03:43:01;;;;;;;3.03;0.40;;;12.40;69.60;;;;;;5115917;27;20056;-67
2022/07/21 03:45:31;;;;;;;5.80;0.57;;;12.40;69.60;;;;;;5111601;27;20092;-68
2022/07/21 03:47:59;;;;;;;11.45;2.20;;;12.40;69.70;;;;;;5111823;28;20043;-68
2022/07/21 03:50:26;;;;;;;3.72;0.43;;;12.40;69.90;;;;;;5111307;28;20394;-69
2022/07/21 03:53:33;;;;;;;9.07;2.00;;;12.40;69.80;;;;;;5108924;28;20024;-71
2022/07/21 03:56:39;;;;;;;17.88;1.83;;;12.40;69.80;;;;;;5106192;27;20024;-70
2022/07/21 03:59:45;;;;;;;11.40;1.27;;;12.40;70.20;;;;;;5112060;27;20137;-68
2022/07/21 04:02:51;;;;;;;6.07;0.80;;;12.40;70.20;;;;;;5110177;27;20030;-69
2022/07/21 04:05:57;;;;;;;3.30;2.00;;;12.40;70.40;;;;;;5110748;27;20062;-71
2022/07/21 04:09:03;;;;;;;4.25;2.53;;;12.40;70.50;;;;;;5109137;28;20063;-70
2022/07/21 04:12:09;;;;;;;5.10;2.58;;;12.40;70.50;;;;;;5110360;27;20402;-70
2022/07/21 04:15:15;;;;;;;2.42;2.03;;;12.30;70.50;;;;;;5110229;27;20022;-66
2022/07/21 04:18:21;;;;;;;11.32;3.28;;;12.30;70.40;;;;;;5113400;27;20486;-70
2022/07/21 04:20:47;;;;;;;4.65;2.83;;;12.30;70.80;;;;;;5111258;28;20020;-71
2022/07/21 04:23:14;;;;;;;11.85;7.40;;;12.20;71.40;;;;;;5109407;27;20674;-69
2022/07/21 04:25:40;;;;;;;6.53;4.43;;;12.20;71.40;;;;;;5111368;27;20027;-67
2022/07/21 04:28:07;;;;;;;6.22;2.38;;;12.20;71.40;;;;;;5110486;27;20028;-74
2022/07/21 04:30:34;;;;;;;4.80;1.70;;;12.20;71.20;;;;;;5111259;27;20020;-70
2022/07/21 04:33:01;;;;;;;1.67;0.95;;;12.20;71.40;;;;;;5090668;28;20027;-70
2022/07/21 04:35:27;;;;;;;3.85;0.93;;;12.20;70.90;;;;;;5111290;27;20048;-71
2022/07/21 04:37:54;;;;;;;0.95;0.55;;;12.20;70.80;;;;;;5111821;27;20030;-71
2022/07/21 04:40:20;;;;;;;3.72;0.50;;;12.20;71.00;;;;;;5095275;28;20046;-71
2022/07/21 04:42:47;;;;;;;4.97;0.65;;;12.20;71.00;;;;;;5111609;27;20095;-74
2022/07/21 04:45:16;;;;;;;3.50;0.70;;;12.20;71.00;;;;;;5111230;27;20466;-72
2022/07/21 04:47:54;;;;;;;15.40;1.10;;;12.20;71.30;;;;;;5093020;28;20032;-73
2022/07/21 04:50:24;;;;;;;3.28;0.55;;;12.20;71.60;;;;;;5107622;27;20020;-72
2022/07/21 04:52:51;;;;;;;4.60;0.80;;;12.10;71.70;;;;;;5090174;28;20122;-72
2022/07/21 04:55:19;;;;;;;22.52;2.55;;;12.10;71.40;;;;;;5109032;27;20031;-72
2022/07/21 04:57:48;;;;;;;6.63;2.00;;;12.10;71.40;;;;;;5108648;27;20124;-70
2022/07/21 05:00:18;;;;;;;6.63;1.17;;;12.10;71.40;;;;;;5110564;27;20458;-71
2022/07/21 05:02:46;;;;;;;1.55;0.90;;;12.20;71.50;;;;;;5109641;27;20024;-72
2022/07/21 05:05:13;;;;;;;3.88;1.20;;;12.10;71.40;;;;;;5110476;28;20026;-72
2022/07/21 05:07:39;;;;;;;4.05;1.15;;;12.10;71.40;;;;;;5111734;27;20039;-71
2022/07/21 05:10:07;;;;;;;1.20;0.70;;;12.10;71.50;;;;;;5109088;27;20020;-72
2022/07/21 05:12:34;;;;;;;3.65;1.30;;;12.10;72.00;;;;;;5109218;27;20549;-71
2022/07/21 05:15:01;;;;;;;3.75;1.30;;;12.10;71.50;;;;;;5112715;27;20015;-71
2022/07/21 05:17:28;;;;;;;2.38;1.35;;;12.10;71.60;;;;;;5109509;28;20051;-71
2022/07/21 05:19:54;;;;;;;3.22;0.80;;;12.10;71.60;;;;;;5109051;28;20020;-70
2022/07/21 05:22:21;;;;;;;5.47;1.73;;;12.00;71.50;;;;;;5110482;27;20024;-71
2022/07/21 05:24:47;;;;;;;7.93;2.13;;;12.10;71.60;;;;;;5108742;27;20030;-71
2022/07/21 05:27:14;;;;;;;2.00;1.50;;;12.00;71.90;;;;;;5110516;27;20478;-71
2022/07/21 05:29:40;;;;;;;2.92;1.42;;;12.00;71.90;;;;;;5108008;28;20124;-71
2022/07/21 05:32:07;;;;;;;4.82;1.63;;;12.00;71.90;;;;;;5108412;27;20015;-69
2022/07/21 05:34:34;;;;;;;5.90;1.70;;;12.00;71.80;;;;;;5109674;27;20024;-71
2022/07/21 05:37:00;;;;;;;2.08;1.52;;;12.00;71.70;;;;;;5108941;27;20421;-70
2022/07/21 05:39:26;;;;;;;2.28;1.75;;;12.00;71.70;;;;;;5110920;27;20054;-71
2022/07/21 05:41:53;;;;;;;4.05;2.75;;;12.00;71.70;;;;;;5108314;27;20016;-71
2022/07/21 05:44:19;;;;;;;4.95;2.58;;;12.00;71.70;;;;;;5108916;27;20024;-72
2022/07/21 05:46:47;;;;;;;3.20;2.17;;;12.00;71.70;;;;;;5109027;28;20486;-72
2022/07/21 05:49:13;;;;;;;10.07;3.10;;;12.00;71.60;;;;;;5109962;27;20218;-71
2022/07/21 05:51:40;;;;;;;6.07;2.95;;;12.00;72.20;;;;;;5110066;27;20019;-71
2022/07/21 05:54:06;;;;;;;7.82;3.35;;;12.00;73.00;;;;;;5106902;28;20020;-71
2022/07/21 05:56:34;;;;;;;14.38;4.25;;;12.00;74.00;;;;;;5107961;27;20019;-71
2022/07/21 05:59:00;;;;;;;8.55;3.83;;;12.00;74.30;;;;;;5111395;27;20393;-71
2022/07/21 06:01:27;;;;;;;4.25;3.47;;;11.90;73.10;;;;;;5107770;28;20019;-71
2022/07/21 06:03:53;;;;;;;6.50;3.88;;;11.90;72.20;;;;;;5109226;27;20094;-70
2022/07/21 06:06:20;;;;;;;6.53;3.50;;;11.90;71.90;;;;;;5106316;28;20020;-71
2022/07/21 06:08:48;;;;;;;16.02;5.03;;;11.90;71.70;;;;;;5108889;27;20027;-70
2022/07/21 06:11:17;;;;;;;13.60;6.03;;;11.90;71.50;;;;;;5110842;27;20016;-72
2022/07/21 06:13:45;;;;;;;6.05;3.80;;;11.90;71.80;;;;;;5109908;27;20037;-70
2022/07/21 06:16:12;;;;;;;7.35;3.65;;;11.90;72.00;;;;;;5106404;28;20062;-71
2022/07/21 06:18:38;;;;;;;13.57;5.82;;;11.90;72.00;;;;;;5091759;28;20387;-70
2022/07/21 06:21:05;;;;;;;7.50;3.80;;;11.90;72.20;;;;;;5109884;28;20063;-71
2022/07/21 06:23:32;;;;;;;12.15;4.75;;;11.90;72.50;;;;;;5109885;28;20371;-72
2022/07/21 06:25:58;;;;;;;11.98;3.42;;;11.80;72.50;;;;;;5108654;28;20027;-71
2022/07/21 06:28:25;;;;;;;4.40;3.80;;;11.90;72.70;;;;;;5110390;28;20058;-72
2022/07/21 06:30:52;;;;;;;18.50;3.40;;;11.90;73.00;;;;;;5109208;28;20024;-71
2022/07/21 06:33:18;;;;;;;22.65;4.32;;;11.90;73.40;;;;;;5110194;28;20148;-72
2022/07/21 06:35:45;;;;;;;6.13;3.00;;;11.90;73.80;;;;;;5108555;28;20454;-71
2022/07/21 06:38:11;;;;;;;9.25;3.17;;;11.90;74.10;;;;;;5107803;28;20451;-71
2022/07/21 06:40:38;;;;;;;10.23;2.78;;;11.90;74.40;;;;;;5111934;28;20011;-71
2022/07/21 06:43:04;;;;;;;16.70;4.15;;;11.90;74.70;;;;;;5107999;28;20473;-73
2022/07/21 06:45:31;;;;;;;7.68;2.00;;;11.90;74.90;;;;;;5108921;28;20419;-71
2022/07/21 06:48:08;;;;;;;5.72;1.80;;;11.90;75.00;;;;;;5110373;28;20497;-71
2022/07/21 06:50:36;;;;;;;8.38;3.45;;;11.90;74.90;;;;;;5108923;28;20023;-71
2022/07/21 06:53:03;;;;;;;10.82;2.65;;;11.90;74.90;;;;;;5105793;28;20514;-71
2022/07/21 06:55:30;;;;;;;4.82;2.08;;;11.90;75.30;;;;;;5108827;28;20047;-72
2022/07/21 06:57:56;;;;;;;9.77;2.60;;;12.00;75.80;;;;;;5116577;27;20429;-72
2022/07/21 07:00:23;;;;;;;4.70;2.88;;;12.00;75.90;;;;;;5113688;27;20522;-71
2022/07/21 07:02:49;;;;;;;3.95;2.35;;;12.00;75.80;;;;;;5114131;27;20028;-71
2022/07/21 07:05:16;;;;;;;2.42;2.20;;;12.00;75.90;;;;;;5112759;27;20102;-71
2022/07/21 07:07:43;;;;;;;3.85;2.80;;;12.00;76.00;;;;;;5114187;27;20023;-71
2022/07/21 07:10:11;;;;;;;4.63;3.40;;;12.00;76.10;;;;;;5119296;27;20058;-71
2022/07/21 07:12:37;;;;;;;9.13;4.18;;;12.00;76.20;;;;;;5110906;28;20012;-71
2022/07/21 07:15:04;;;;;;;8.77;3.60;;;12.10;76.30;;;;;;5112112;27;20149;-71
2022/07/21 07:17:31;;;;;;;13.95;4.53;;;12.10;76.40;;;;;;5109402;27;20075;-72
2022/07/21 07:19:57;;;;;;;9.65;4.63;;;12.10;76.60;;;;;;5115604;27;20378;-71
2022/07/21 07:22:24;;;;;;;6.70;4.65;;;12.10;77.10;;;;;;5113424;27;20070;-71
2022/07/21 07:24:50;;;;;;;14.00;6.07;;;12.10;77.50;;;;;;5111213;27;20023;-71
2022/07/21 07:29:52;;;;;;;12.15;6.75;;;12.20;78.00;;;;;;5077814;22;20448;-69
2022/07/21 07:32:19;;;;;;;7.13;6.38;;;12.30;78.20;;;;;;5053379;28;20052;-69
2022/07/21 07:34:45;;;;;;;9.05;6.88;;;12.30;78.20;;;;;;5052563;28;20137;-69
2022/07/21 07:37:12;;;;;;;14.02;7.60;;;12.30;78.30;;;;;;5053858;28;20036;-69
2022/07/21 07:40:18;;;;;;;10.20;8.30;;;12.40;78.40;;;;;;5052510;28;20479;-71
2022/07/21 07:43:24;;;;;;;9.38;7.13;;;12.40;78.40;;;;;;5051307;28;20043;-69
2022/07/21 07:46:30;;;;;;;14.43;8.35;;;12.50;78.40;;;;;;5054061;28;20476;-70
2022/07/21 07:49:36;;;;;;;11.25;6.95;;;12.50;78.40;;;;;;5053452;28;20033;-69
2022/07/21 07:52:42;;;;;;;13.07;7.35;;;12.60;79.10;;;;;;5052296;28;20017;-69
2022/07/21 07:55:48;;;;;;;17.67;9.77;;;12.60;78.50;;;;;;5051341;28;20108;-69
2022/07/21 07:58:54;;;;;;;21.17;8.25;;;12.60;78.50;;;;;;5052574;28;20017;-70
2022/07/21 08:02:00;;;;;;;11.85;7.05;;;12.70;78.70;;;;;;5051255;28;20013;-70
2022/07/21 08:05:08;;;;;;;16.30;6.70;;;12.70;79.00;;;;;;5051821;28;20013;-69
2022/07/21 08:08:14;;;;;;;7.05;6.03;;;12.80;79.10;;;;;;5052079;28;20091;-69
2022/07/21 08:11:20;;;;;;;20.95;8.15;;;12.80;79.30;;;;;;5052599;28;20017;-69
2022/07/21 08:14:26;;;;;;;21.35;7.15;;;12.80;79.30;;;;;;5049921;28;20022;-69
2022/07/21 08:17:32;;;;;;;24.92;8.13;;;12.90;79.30;;;;;;5051780;28;20017;-71
2022/07/21 08:20:38;;;;;;;17.08;8.50;;;13.00;79.40;;;;;;5025007;28;20120;-71
2022/07/21 08:23:44;;;;;;;12.10;9.93;;;13.10;79.80;;;;;;5050712;28;20071;-69
2022/07/21 08:26:50;;;;;;;11.85;8.75;;;13.10;80.10;;;;;;5050949;28;20021;-72
2022/07/21 08:29:56;;;;;;;18.48;9.95;;;13.20;80.20;;;;;;5053017;28;20079;-72
2022/07/21 08:33:02;;;;;;;18.15;9.00;;;13.20;80.30;;;;;;5051932;28;20017;-71
2022/07/21 08:36:08;;;;;;;15.55;8.55;;;13.30;80.80;;;;;;5049048;28;20028;-73
2022/07/21 08:39:14;;;;;;;15.48;8.57;;;13.40;80.20;;;;;;5053268;28;20024;-71
2022/07/21 08:42:20;;;;;;;17.33;6.57;;;13.40;80.60;;;;;;5052137;28;20024;-70
2022/07/21 08:45:27;;;;;;;20.27;7.53;;;13.40;80.60;;;;;;5048868;28;20409;-71
2022/07/21 08:48:33;;;;;;;14.27;6.50;;;13.50;80.40;;;;;;5051833;28;20064;-73
2022/07/21 08:51:39;;;;;;;12.57;6.82;;;13.50;79.90;;;;;;5050339;28;20017;-70
2022/07/21 08:54:45;;;;;;;9.60;5.95;;;13.50;79.60;;;;;;5050195;28;20032;-71
2022/07/21 08:57:52;;;;;;;12.13;5.45;;;13.60;79.80;;;;;;5051165;28;20379;-70
2022/07/21 09:00:58;;;;;;;12.48;5.43;;;13.70;80.10;;;;;;5050381;28;20057;-70
2022/07/21 09:04:04;;;;;;;12.48;5.20;;;13.70;79.40;;;;;;5050081;28;20025;-71
2022/07/21 09:06:59;;;;;;;7.57;3.53;;;13.80;79.50;;;;;;5048877;28;20016;-70
2022/07/21 09:10:05;;;;;;;7.07;3.83;;;13.80;79.10;;;;;;5050989;28;20029;-71
2022/07/21 09:13:17;;;;;;;7.75;2.55;;;13.90;78.50;;;;;;5048856;28;20033;-70
2022/07/21 09:16:23;;;;;;;15.60;3.15;;;14.00;77.80;;;;;;5052389;28;20117;-70
2022/07/21 09:19:41;;;;;;;9.45;3.20;;;14.00;77.40;;;;;;5046220;28;20096;-70
2022/07/21 09:22:47;;;;;;;8.77;2.65;;;14.10;77.70;;;;;;5049759;28;20118;-72
2022/07/21 09:25:53;;;;;;;7.88;2.95;;;14.10;78.10;;;;;;5051289;28;20486;-70
2022/07/21 09:29:08;;;;;;;5.10;2.55;;;14.20;78.40;;;;;;5049544;28;20064;-71
2022/07/21 09:32:14;;;;;;;11.55;3.20;;;14.30;78.30;;;;;;5049762;28;20024;-71
2022/07/21 09:35:20;;;;;;;5.93;3.10;;;14.40;78.00;;;;;;5050174;28;20372;-70
2022/07/21 09:38:29;;;;;;;6.13;2.92;;;14.50;77.60;;;;;;5051590;28;20029;-70
2022/07/21 09:41:35;;;;;;;8.77;2.78;;;14.60;77.80;;;;;;5047258;28;20025;-71
2022/07/21 09:44:41;;;;;;;5.40;3.50;;;14.70;77.50;;;;;;5051671;28;20426;-71
2022/07/21 09:47:50;;;;;;;7.05;3.08;;;14.70;77.30;;;;;;5048385;28;20029;-72
2022/07/21 09:50:56;;;;;;;11.63;3.70;;;14.80;77.20;;;;;;5051050;28;20029;-72
2022/07/21 09:54:08;;;;;;;9.73;2.83;;;14.90;77.00;;;;;;5049375;28;20021;-72
2022/07/21 09:57:14;;;;;;;10.98;3.15;;;15.00;77.00;;;;;;5049107;28;20032;-71
2022/07/21 10:00:21;;;;;;;6.40;2.80;;;15.10;76.50;;;;;;5050763;28;20017;-70
2022/07/21 10:03:27;;;;;;;5.95;2.90;;;15.10;76.30;;;;;;5049527;28;20019;-73
2022/07/21 10:06:33;;;;;;;9.52;2.78;;;15.20;76.50;;;;;;5047684;28;20040;-73
2022/07/21 10:09:39;;;;;;;11.02;4.10;;;15.30;75.70;;;;;;5046673;28;20438;-70
2022/07/21 10:12:45;;;;;;;4.32;2.35;;;15.30;74.30;;;;;;5048777;28;20100;-70
2022/07/21 10:15:51;;;;;;;3.38;1.95;;;15.40;74.10;;;;;;5048916;28;20059;-71
2022/07/21 10:19:15;;;;;;;3.78;2.55;;;15.40;73.20;;;;;;5048991;28;20021;-71
2022/07/21 10:22:22;;;;;;;5.50;1.80;;;15.50;72.90;;;;;;5051070;28;20028;-70
2022/07/21 10:25:28;;;;;;;6.95;2.00;;;15.50;72.10;;;;;;5047339;28;20021;-69
2022/07/21 10:28:33;;;;;;;8.95;2.03;;;15.60;71.90;;;;;;5049669;28;20052;-71
2022/07/21 10:31:39;;;;;;;5.60;2.28;;;15.70;72.00;;;;;;5046668;28;20376;-71
2022/07/21 10:34:53;;;;;;;5.38;2.17;;;15.70;71.80;;;;;;5051373;28;20040;-70
2022/07/21 10:37:38;;;;;;;4.45;2.35;;;15.70;71.00;;;;;;5049735;28;20401;-70
2022/07/21 10:40:25;;;;;;;5.33;2.67;;;15.80;70.70;;;;;;5049915;28;20008;-70
2022/07/21 10:43:01;;;;;;;6.90;2.20;;;15.90;70.60;;;;;;5051476;28;20331;-70
2022/07/21 10:46:13;;;;;;;4.50;1.70;;;15.90;70.90;;;;;;5048073;28;20021;-71
2022/07/21 10:48:40;;;;;;;2.45;1.50;;;15.90;70.90;;;;;;5048599;28;20120;-71
2022/07/21 10:51:52;;;;;;;4.50;1.25;;;16.00;70.60;;;;;;5049146;28;20068;-70
2022/07/21 10:54:58;;;;;;;6.13;1.77;;;16.10;70.40;;;;;;5046685;28;20043;-70
2022/07/21 10:58:04;;;;;;;7.88;1.38;;;16.10;70.00;;;;;;5049272;28;20025;-71
2022/07/21 11:01:10;;;;;;;3.08;1.55;;;16.20;70.00;;;;;;5049228;28;20027;-71
2022/07/21 11:04:31;;;;;;;7.13;1.77;;;16.20;69.80;;;;;;5047784;28;20021;-70
2022/07/21 11:07:37;;;;;;;1.52;0.80;;;16.30;69.30;;;;;;5051383;28;20085;-70
2022/07/21 11:10:55;;;;;;;2.92;1.00;;;16.30;68.90;;;;;;5049308;28;20064;-70
2022/07/21 11:14:20;;;;;;;2.17;1.00;;;16.30;68.30;;;;;;5048233;28;20497;-70
2022/07/21 11:16:49;;;;;;;12.43;1.23;;;16.40;68.10;;;;;;5047189;28;20056;-70
2022/07/21 11:20:14;;;;;;;4.75;1.17;;;16.50;68.40;;;;;;5049805;28;20097;-71
2022/07/21 11:23:20;;;;;;;1.48;0.80;;;16.50;68.40;;;;;;5051071;28;20028;-69
2022/07/21 11:26:26;;;;;;;4.13;0.98;;;16.60;68.30;;;;;;5049078;28;20017;-70
2022/07/21 11:29:33;;;;;;;3.70;1.00;;;16.70;68.30;;;;;;5048071;28;20076;-73
2022/07/21 11:32:39;;;;;;;3.92;1.20;;;16.70;67.80;;;;;;5049372;28;20029;-70
2022/07/21 11:35:45;;;;;;;2.83;0.88;;;16.80;67.70;;;;;;5050724;28;20335;-70
2022/07/21 11:38:51;;;;;;;2.47;0.80;;;16.80;67.60;;;;;;5048417;28;20038;-71
2022/07/21 11:41:57;;;;;;;2.50;0.63;;;16.90;68.00;;;;;;5047290;28;20017;-71
2022/07/21 11:45:03;;;;;;;0.65;0.65;;;16.90;68.40;;;;;;5053628;28;20458;-70
2022/07/21 11:48:09;;;;;;;2.25;1.02;;;17.00;68.30;;;;;;5051500;28;20017;-70
2022/07/21 11:51:18;;;;;;;2.80;1.13;;;17.00;68.40;;;;;;5050805;28;20037;-70
2022/07/21 11:54:24;;;;;;;2.70;1.02;;;17.10;68.80;;;;;;5047175;28;20071;-71
2022/07/21 11:57:30;;;;;;;3.50;0.98;;;17.10;69.30;;;;;;5051636;28;20018;-70
2022/07/21 12:00:36;;;;;;;5.82;1.08;;;17.10;69.50;;;;;;5051884;28;20048;-70
2022/07/21 12:03:45;;;;;;;1.65;1.00;;;17.10;69.50;;;;;;5050361;28;20021;-71
2022/07/21 12:06:51;;;;;;;3.33;1.30;;;17.20;69.80;;;;;;5052074;28;20503;-70
2022/07/21 12:09:57;;;;;;;3.13;1.02;;;17.20;69.90;;;;;;5050782;28;20032;-70
2022/07/21 12:12:33;;;;;;;3.67;0.65;;;17.30;70.00;;;;;;5050615;28;20021;-70
2022/07/21 12:15:57;;;;;;;3.08;1.02;;;17.30;70.40;;;;;;5054829;28;20025;-71
2022/07/21 12:19:03;;;;;;;4.30;1.20;;;17.30;70.30;;;;;;5034690;28;20027;-71
2022/07/21 12:22:10;;;;;;;6.20;0.95;;;17.30;70.30;;;;;;5052787;28;20474;-71
2022/07/21 12:25:22;;;;;;;3.67;1.58;;;17.30;70.70;;;;;;5057204;28;20745;-71
2022/07/21 12:28:28;;;;;;;5.25;1.27;;;17.40;70.50;;;;;;5052043;28;20040;-72
2022/07/21 12:31:34;;;;;;;11.07;1.73;;;17.40;70.70;;;;;;5054065;28;20031;-71
2022/07/21 12:34:40;;;;;;;4.45;1.50;;;17.40;71.00;;;;;;5049588;28;20025;-72
2022/07/21 12:37:46;;;;;;;4.55;1.30;;;17.50;70.90;;;;;;5053150;28;21114;-74
2022/07/21 12:40:52;;;;;;;4.90;1.35;;;17.50;71.80;;;;;;5051449;28;20020;-73
2022/07/21 12:43:58;;;;;;;2.20;1.25;;;17.50;71.10;;;;;;5051313;28;20078;-73
2022/07/21 12:47:08;;;;;;;2.97;1.00;;;17.50;71.70;;;;;;5047198;28;20028;-72
2022/07/21 12:50:14;;;;;;;2.40;1.17;;;17.50;72.00;;;;;;5049713;28;20029;-72
2022/07/21 12:53:20;;;;;;;12.23;1.73;;;17.50;72.00;;;;;;5051174;28;20471;-72
2022/07/21 12:56:26;;;;;;;5.13;1.58;;;17.60;72.40;;;;;;5047811;28;20111;-73
2022/07/21 12:59:32;;;;;;;5.88;1.50;;;17.60;72.80;;;;;;5056800;28;20024;-72
2022/07/21 13:02:38;;;;;;;5.03;1.63;;;17.60;72.80;;;;;;5050520;28;20021;-73
2022/07/21 13:05:44;;;;;;;4.03;1.65;;;17.60;73.20;;;;;;5049642;28;20036;-72
2022/07/21 13:08:50;;;;;;;6.55;2.05;;;17.60;73.20;;;;;;5050874;28;20135;-70
2022/07/21 13:11:36;;;;;;;;;;;17.70;73.40;;;;;;5049997;28;20121;-71
2022/07/21 13:14:42;;;;;;;1.42;1.10;;;17.60;73.40;;;;;;5050205;28;19908;-70
2022/07/21 13:17:48;;;;;;;5.90;1.17;;;17.60;73.60;;;;;;5048731;28;20014;-70
2022/07/21 13:20:54;;;;;;;2.75;1.05;;;17.70;73.60;;;;;;5049849;28;20123;-70
2022/07/21 13:24:00;;;;;;;2.38;1.00;;;17.70;73.80;;;;;;5052209;28;20017;-70
2022/07/21 13:27:07;;;;;;;7.18;1.45;;;17.70;74.20;;;;;;5049479;28;20044;-70
2022/07/21 13:30:13;;;;;;;4.93;1.33;;;17.70;74.10;;;;;;5050442;28;20491;-72
2022/07/21 13:33:19;;;;;;;4.28;1.20;;;17.70;73.80;;;;;;5052120;28;20067;-71
2022/07/21 13:36:26;;;;;;;10.48;1.80;;;17.80;73.80;;;;;;5049572;28;20040;-70
2022/07/21 13:39:32;;;;;;;4.45;1.88;;;17.80;73.80;;;;;;5046829;28;20032;-71
2022/07/21 13:42:18;;;;;;;;;;;17.70;73.70;;;;;;5049385;28;20372;-71
2022/07/21 13:45:24;;;;;;;4.07;1.23;;;17.80;73.70;;;;;;5052041;28;19995;-71
2022/07/21 13:48:30;;;;;;;7.10;1.45;;;17.80;73.80;;;;;;5048324;28;20083;-71
2022/07/21 13:51:36;;;;;;;2.45;1.63;;;17.80;73.40;;;;;;5052153;28;20478;-70
2022/07/21 13:54:42;;;;;;;7.90;3.00;;;17.80;73.10;;;;;;5026159;28;20025;-70
2022/07/21 13:57:50;;;;;;;5.90;1.95;;;17.80;72.90;;;;;;5049912;28;20024;-70
2022/07/21 14:00:56;;;;;;;7.80;2.08;;;17.80;72.60;;;;;;5050369;28;20024;-70
2022/07/21 16:23:58;;;;;;;12.05;5.60;;;16.10;77.60;;;;;;5017294;28;20963;-70
2022/07/21 16:26:25;;;;;;;13.38;5.50;;;16.20;78.40;;;;;;5004127;28;20022;-72
2022/07/21 16:28:53;;;;;;;22.40;5.90;;;16.20;78.50;;;;;;5003115;28;20026;-73
2022/07/21 16:31:21;;;;;;;10.95;6.70;;;16.20;78.60;;;;;;5002330;28;20065;-68
2022/07/21 16:33:50;;;;;;;10.07;5.40;;;16.30;78.40;;;;;;5001765;28;20022;-70
2022/07/21 16:36:17;;;;;;;19.35;12.02;;;16.30;78.40;;;;;;5000509;28;20516;-72